Florissant, Colorado
Current Conditions -  °F | °C
As of 8:54 PM on Friday 19 Dec 2014 (Local Time) from K4BM Reporting Station
Clear Clear  
Wind Chill:   Ceiling: Unl
Heat Index: 21°   Visibility: 10mi
Dew Point:   Wind: 13mph
Humidity: 58%   Direction: 340°NNW
Pressure: 30.11"   Gusts: 23mph
Location:  38.95°N, 105.29°W
Report Text: K4BM 200354Z AUTO 34011G20KT 310V040 10SM CLR M06/M13 A3011 RMK AO2
Loading
Personal Weather Stations






























Interactive Weather Map New forecast layout! Learn more

10-Day Weather Forecast

Advertisements
Track Severe Weather on mobile